TAF KSAN
AMD KSAN 270845Z 2709/2812 VRB03KT P6SM SKC FM272000 28007KT P6SM SCT250 FM280100 VRB04KT P6SM SCT250=
METAR KSAN
KSAN 261951Z 29006KT 10SM SCT250 26/M04 A3006 RMK AO2 SLP177 T02561044 ?
KSAN 261851Z 00000KT 10SM FEW250 24/M03 A3009 RMK AO2 SLP189 T02441028 ?
KSAN 261751Z 00000KT 10SM FEW250 20/M01 A3013 RMK AO2 SLP202 T02001011 10206 20094 58009
KSAN 261651Z 00000KT 10SM FEW250 18/M03 A3014 RMK AO2 SLP207 T01781028 ?
KSAN 261551Z 32003KT 9SM FEW250 13/M03 A3016 RMK AO2 SLP211 T01331028 ?
WC KSAN
WS KSAN
WV KSAN